createdAt,value
2023-01-08T00:01:19.607Z,100349.94
2023-01-08T00:03:46.615Z,100348.59
2023-01-08T00:06:16.016Z,100358.81
2023-01-08T00:08:43.862Z,100358.81
2023-01-08T00:11:11.237Z,100348.78
2023-01-08T00:13:37.900Z,100360.53
2023-01-08T00:16:08.867Z,100354.25
2023-01-08T00:18:35.729Z,100368.72
2023-01-08T00:21:05.028Z,100363.28
2023-01-08T00:23:31.809Z,100346.91
2023-01-08T00:26:02.471Z,100355.09
2023-01-08T00:28:29.361Z,100345.03
2023-01-08T00:30:56.103Z,100338.72
2023-01-08T00:33:25.310Z,100325.72
2023-01-08T00:35:51.831Z,100314.13
2023-01-08T00:38:18.412Z,100313.13
2023-01-08T00:40:45.110Z,100321.50
2023-01-08T00:43:13.786Z,100321.66
2023-01-08T00:45:40.377Z,100299.09
2023-01-08T00:48:06.984Z,100314.13
2023-01-08T00:50:33.696Z,100309.16
2023-01-08T00:53:00.858Z,100310.53
2023-01-08T00:55:27.441Z,100305.06
2023-01-08T00:57:53.948Z,100301.81
2023-01-08T01:00:22.733Z,100303.53
2023-01-08T01:02:49.332Z,100300.44
2023-01-08T01:05:17.031Z,100314.63
2023-01-08T01:07:46.915Z,100300.97
2023-01-08T01:10:15.492Z,100296.72
2023-01-08T01:12:42.335Z,100291.59
2023-01-08T01:15:11.808Z,100284.72
2023-01-08T01:17:40.116Z,100281.00
2023-01-08T01:20:07.994Z,100281.50
2023-01-08T01:22:37.834Z,100277.91
2023-01-08T01:25:04.874Z,100272.22
2023-01-08T01:27:33.922Z,100272.63
2023-01-08T01:30:00.514Z,100271.59
2023-01-08T01:32:27.202Z,100280.13
2023-01-08T01:34:55.986Z,100275.72
2023-01-08T01:37:22.482Z,100271.09
2023-01-08T01:39:49.138Z,100261.56
2023-01-08T01:42:39.054Z,100274.91
2023-01-08T01:45:17.617Z,100283.41
2023-01-08T01:47:49.097Z,100274.50
2023-01-08T01:50:22.928Z,100291.59
2023-01-08T01:53:07.307Z,100289.88
2023-01-08T01:55:38.039Z,100267.53
2023-01-08T01:58:15.238Z,100282.69
2023-01-08T02:00:43.256Z,100286.97
2023-01-08T02:03:14.835Z,100265.63
2023-01-08T02:05:56.729Z,100270.09
2023-01-08T02:08:47.843Z,100271.78
2023-01-08T02:11:26.692Z,100271.78
2023-01-08T02:14:05.489Z,100271.78
2023-01-08T02:16:44.677Z,100273.66
2023-01-08T02:19:21.596Z,100272.81
2023-01-08T02:22:02.781Z,100272.63
2023-01-08T02:24:46.758Z,100259.31
2023-01-08T02:27:15.518Z,100265.09
2023-01-08T02:29:44.589Z,100267.31
2023-01-08T02:32:11.588Z,100252.94
2023-01-08T02:34:40.603Z,100247.81
2023-01-08T02:37:08.913Z,100243.72
2023-01-08T02:40:03.931Z,100236.19
2023-01-08T02:42:49.761Z,100257.38
2023-01-08T02:45:22.312Z,100259.00
2023-01-08T02:48:00.018Z,100256.94
2023-01-08T02:50:59.661Z,100253.97
2023-01-08T02:53:37.652Z,100271.22
2023-01-08T02:56:09.445Z,100274.94
2023-01-08T02:58:38.838Z,100269.81
2023-01-08T03:01:09.594Z,100271.00
2023-01-08T03:03:38.936Z,100268.44
2023-01-08T03:06:14.392Z,100261.25
2023-01-08T03:08:44.133Z,100259.00
2023-01-08T03:11:14.942Z,100256.09
2023-01-08T03:14:14.261Z,100270.56
2023-01-08T03:16:59.927Z,100266.94
2023-01-08T03:19:33.030Z,100263.19
2023-01-08T03:22:06.901Z,100266.63
2023-01-08T03:24:37.685Z,100273.94
2023-01-08T03:27:13.020Z,100262.31
2023-01-08T03:29:40.635Z,100270.66
2023-01-08T03:32:13.872Z,100256.34
2023-01-08T03:34:46.338Z,100248.19
2023-01-08T03:37:14.703Z,100235.91
2023-01-08T03:39:49.767Z,100235.19
2023-01-08T03:42:19.713Z,100239.94
2023-01-08T03:44:46.862Z,100246.72
2023-01-08T03:47:14.938Z,100248.44
2023-01-08T03:49:43.838Z,100244.88
2023-01-08T03:52:21.675Z,100237.84
2023-01-08T03:54:48.197Z,100215.97
2023-01-08T03:57:14.739Z,100233.91
2023-01-08T03:59:41.324Z,100225.19
2023-01-08T04:02:10.476Z,100229.47
2023-01-08T04:04:37.485Z,100206.47
2023-01-08T04:07:04.169Z,100215.84
2023-01-08T04:09:30.701Z,100221.84
2023-01-08T04:11:57.368Z,100219.25
2023-01-08T04:14:23.927Z,100209.25
2023-01-08T04:16:52.777Z,100190.97
2023-01-08T04:19:19.409Z,100224.19
2023-01-08T04:21:45.997Z,100215.84
2023-01-08T04:24:12.901Z,100213.59
2023-01-08T04:26:41.794Z,100222.47
2023-01-08T04:29:08.327Z,100220.78
2023-01-08T04:31:34.862Z,100225.38
2023-01-08T04:34:01.401Z,100219.06
2023-01-08T04:36:27.973Z,100205.06
2023-01-08T04:38:54.513Z,100188.28
2023-01-08T04:41:23.625Z,100217.53
2023-01-08T04:43:50.388Z,100210.81
2023-01-08T04:46:17.053Z,100199.41
2023-01-08T04:48:43.713Z,100204.06
2023-01-08T04:51:12.859Z,100212.22
2023-01-08T04:53:41.245Z,100195.13
2023-01-08T04:56:09.976Z,100207.09
2023-01-08T04:58:37.613Z,100195.34
2023-01-08T05:01:12.872Z,100195.13
2023-01-08T05:03:39.552Z,100207.72
2023-01-08T05:06:09.825Z,100214.75
2023-01-08T05:08:41.167Z,100205.69
2023-01-08T05:11:08.313Z,100208.03
2023-01-08T05:13:34.829Z,100212.19
2023-01-08T05:16:01.764Z,100208.56
2023-01-08T05:18:30.225Z,100202.44
2023-01-08T05:21:05.087Z,100189.97
2023-01-08T05:23:32.945Z,100193.44
2023-01-08T05:26:07.406Z,100170.19
2023-01-08T05:28:34.599Z,100192.88
2023-01-08T05:31:01.203Z,100200.34
2023-01-08T05:33:28.067Z,100194.38
2023-01-08T05:35:54.778Z,100183.78
2023-01-08T05:38:21.467Z,100183.47
2023-01-08T05:40:48.051Z,100182.63
2023-01-08T05:43:14.613Z,100189.94
2023-01-08T05:45:41.175Z,100188.41
2023-01-08T05:48:10.185Z,100183.56
2023-01-08T05:50:36.787Z,100195.16
2023-01-08T05:53:07.729Z,100180.31
2023-01-08T05:55:34.748Z,100184.13
2023-01-08T05:58:05.279Z,100176.06
2023-01-08T06:00:33.747Z,100175.97
2023-01-08T06:03:00.499Z,100184.44
2023-01-08T06:05:27.225Z,100179.41
2023-01-08T06:07:56.268Z,100181.59
2023-01-08T06:10:27.551Z,100186.63
2023-01-08T06:12:55.408Z,100198.13
2023-01-08T06:15:22.042Z,100207.03
2023-01-08T06:17:51.031Z,100198.47
2023-01-08T06:20:19.768Z,100208.09
2023-01-08T06:22:46.302Z,100210.25
2023-01-08T06:25:12.889Z,100208.28
2023-01-08T06:27:40.638Z,100208.28
2023-01-08T06:30:08.217Z,100217.88
2023-01-08T06:32:36.930Z,100213.75
2023-01-08T06:35:05.911Z,100224.06
2023-01-08T06:37:34.980Z,100224.66
2023-01-08T06:40:01.599Z,100221.41
2023-01-08T06:42:28.207Z,100228.69
2023-01-08T06:44:57.287Z,100225.59
2023-01-08T06:47:23.823Z,100214.31
2023-01-08T06:49:50.320Z,100229.59
2023-01-08T06:52:16.938Z,100221.63
2023-01-08T06:54:43.458Z,100238.63
2023-01-08T06:57:09.968Z,100228.50
2023-01-08T06:59:39.008Z,100229.50
2023-01-08T07:02:05.677Z,100231.22
2023-01-08T07:04:32.339Z,100230.34
2023-01-08T07:06:58.906Z,100224.38
2023-01-08T07:09:25.480Z,100220.81
2023-01-08T07:11:52.052Z,100224.50
2023-01-08T07:14:18.813Z,100208.66
2023-01-08T07:16:45.383Z,100211.97
2023-01-08T07:19:11.897Z,100207.91
2023-01-08T07:21:40.910Z,100213.34
2023-01-08T07:24:07.741Z,100214.06
2023-01-08T07:26:36.720Z,100217.66
2023-01-08T07:29:06.846Z,100212.91
2023-01-08T07:31:33.512Z,100219.19
2023-01-08T07:34:00.117Z,100208.47
2023-01-08T07:36:26.674Z,100207.78
2023-01-08T07:38:53.321Z,100209.78
2023-01-08T07:41:22.436Z,100212.50
2023-01-08T07:43:49.184Z,100215.22
2023-01-08T07:46:18.112Z,100213.78
2023-01-08T07:48:44.630Z,100228.69
2023-01-08T07:51:13.626Z,100224.38
2023-01-08T07:53:40.307Z,100222.84
2023-01-08T07:56:10.071Z,100215.97
2023-01-08T07:58:39.809Z,100228.72
2023-01-08T08:01:12.720Z,100220.28
2023-01-08T08:03:39.748Z,100216.97
2023-01-08T08:06:07.375Z,100217.25
2023-01-08T08:08:34.055Z,100209.69
2023-01-08T08:11:00.884Z,100212.81
2023-01-08T08:13:27.802Z,100213.53
2023-01-08T08:15:54.429Z,100204.09
2023-01-08T08:18:21.118Z,100197.34
2023-01-08T08:20:49.351Z,100192.66
2023-01-08T08:23:16.137Z,100187.91
2023-01-08T08:25:45.546Z,100183.75
2023-01-08T08:28:12.611Z,100168.47
2023-01-08T08:30:42.402Z,100177.13
2023-01-08T08:33:10.251Z,100170.38
2023-01-08T08:35:37.025Z,100171.09
2023-01-08T08:38:04.569Z,100173.38
2023-01-08T08:40:31.719Z,100164.03
2023-01-08T08:43:00.022Z,100165.41
2023-01-08T08:45:27.432Z,100164.63
2023-01-08T08:47:54.344Z,100168.19
2023-01-08T08:50:21.728Z,100165.25
2023-01-08T08:52:49.099Z,100160.59
2023-01-08T08:55:18.973Z,100162.94
2023-01-08T08:57:47.000Z,100166.41
2023-01-08T09:00:15.073Z,100164.41
2023-01-08T09:02:44.540Z,100164.94
2023-01-08T09:05:13.375Z,100159.97
2023-01-08T09:07:44.751Z,100164.34
2023-01-08T09:10:11.438Z,100170.25
2023-01-08T09:12:40.214Z,100166.09
2023-01-08T09:15:09.447Z,100162.84
2023-01-08T09:17:36.942Z,100169.59
2023-01-08T09:20:05.676Z,100167.09
2023-01-08T09:22:34.731Z,100174.88
2023-01-08T09:25:03.808Z,100173.09
2023-01-08T09:27:32.674Z,100172.63
2023-01-08T09:29:59.236Z,100174.94
2023-01-08T09:32:25.773Z,100171.53
2023-01-08T09:34:54.753Z,100167.72
2023-01-08T09:37:23.785Z,100167.72
2023-01-08T09:39:57.707Z,100171.59
2023-01-08T09:42:30.483Z,100150.22
2023-01-08T09:45:00.208Z,100156.72
2023-01-08T09:47:36.727Z,100124.09
2023-01-08T09:50:08.201Z,100150.91
2023-01-08T09:52:34.749Z,100151.19
2023-01-08T09:55:01.659Z,100149.75
2023-01-08T09:57:29.173Z,100150.91
2023-01-08T09:59:57.938Z,100147.88
2023-01-08T10:02:26.396Z,100147.69
2023-01-08T10:04:59.000Z,100136.22
2023-01-08T10:07:27.501Z,100134.00
2023-01-08T10:09:55.452Z,100132.78
2023-01-08T10:12:32.890Z,100127.97
2023-01-08T10:15:11.365Z,100127.03
2023-01-08T10:17:40.669Z,100115.22
2023-01-08T10:20:22.662Z,100117.84
2023-01-08T10:22:56.604Z,100119.06
2023-01-08T10:25:26.145Z,100111.66
2023-01-08T10:27:59.320Z,100110.19
2023-01-08T10:30:36.681Z,100075.91
2023-01-08T10:33:10.811Z,100088.00
2023-01-08T10:35:42.638Z,100099.78
2023-01-08T10:39:01.107Z,100109.38
2023-01-08T10:41:28.740Z,100100.75
2023-01-08T10:44:14.620Z,100082.69
2023-01-08T10:46:45.178Z,100085.97
2023-01-08T10:49:23.536Z,100085.31
2023-01-08T10:51:52.387Z,100073.59
2023-01-08T10:54:33.943Z,100077.38
2023-01-08T10:57:02.537Z,100075.03
2023-01-08T10:59:29.627Z,100073.50
2023-01-08T11:01:58.292Z,100069.13
2023-01-08T11:04:36.289Z,100067.59
2023-01-08T11:07:05.793Z,100058.91
2023-01-08T11:09:46.056Z,100061.47
2023-01-08T11:12:34.265Z,100049.91
2023-01-08T11:15:01.354Z,100041.34
2023-01-08T11:17:28.568Z,100049.94
2023-01-08T11:20:08.046Z,100042.97
2023-01-08T11:22:34.629Z,100034.94
2023-01-08T11:25:01.253Z,100031.56
2023-01-08T11:27:36.758Z,100028.66
2023-01-08T11:30:20.256Z,100009.72
2023-01-08T11:32:54.931Z,100023.19
2023-01-08T11:35:25.190Z,100021.50
2023-01-08T11:37:55.489Z,100017.56
2023-01-08T11:40:35.993Z,100014.50
2023-01-08T11:43:32.288Z,100009.34
2023-01-08T11:45:58.753Z,100009.88
2023-01-08T11:48:49.797Z,100004.06
2023-01-08T11:51:50.863Z,99987.53
2023-01-08T11:54:28.786Z,99972.78
2023-01-08T11:57:09.544Z,99978.44
2023-01-08T12:00:10.721Z,99982.19
2023-01-08T12:02:51.832Z,99979.41
2023-01-08T12:05:43.270Z,99963.69
2023-01-08T12:08:21.755Z,99954.84
2023-01-08T12:11:02.195Z,99952.78
2023-01-08T12:13:31.661Z,99965.91
2023-01-08T12:16:04.013Z,99965.56
2023-01-08T12:18:39.772Z,99963.66
2023-01-08T12:21:30.280Z,99964.84
2023-01-08T12:24:16.884Z,99959.06
2023-01-08T12:26:55.239Z,99962.28
2023-01-08T12:29:42.175Z,99955.13
2023-01-08T12:32:22.834Z,99963.28
2023-01-08T12:35:15.294Z,99956.63
2023-01-08T12:37:52.036Z,99958.47
2023-01-08T12:40:37.669Z,99954.00
2023-01-08T12:43:13.133Z,99958.38
2023-01-08T12:45:45.322Z,99963.09
2023-01-08T12:48:16.766Z,99950.38
2023-01-08T12:51:24.094Z,99947.59
2023-01-08T12:54:03.070Z,99950.31
2023-01-08T12:56:40.510Z,99949.97
2023-01-08T12:59:32.983Z,99940.13
2023-01-08T13:02:26.011Z,99935.38
2023-01-08T13:04:55.116Z,99935.34
2023-01-08T13:07:27.905Z,99932.59
2023-01-08T13:09:56.979Z,99927.31
2023-01-08T13:12:39.527Z,99924.13
2023-01-08T13:15:08.183Z,99916.84
2023-01-08T13:17:37.557Z,99907.50
2023-01-08T13:20:06.963Z,99909.88
2023-01-08T13:22:40.503Z,99912.44
2023-01-08T13:25:16.972Z,99906.69
2023-01-08T13:27:45.393Z,99908.91
2023-01-08T13:30:35.777Z,99909.75
2023-01-08T13:33:02.929Z,99901.38
2023-01-08T13:35:31.935Z,99900.47
2023-01-08T13:38:10.789Z,99906.97
2023-01-08T13:40:43.403Z,99891.06
2023-01-08T13:43:36.807Z,99882.56
2023-01-08T13:46:03.525Z,99890.81
2023-01-08T13:48:35.291Z,99876.34
2023-01-08T13:51:02.492Z,99885.34
2023-01-08T13:53:29.367Z,99892.88
2023-01-08T13:56:00.076Z,99878.41
2023-01-08T13:58:35.754Z,99886.78
2023-01-08T14:01:04.910Z,99881.19
2023-01-08T14:03:44.357Z,99879.34
2023-01-08T14:06:20.937Z,99880.59
2023-01-08T14:08:59.932Z,99872.25
2023-01-08T14:11:40.776Z,99861.38
2023-01-08T14:14:12.842Z,99843.69
2023-01-08T14:16:42.230Z,99847.44
2023-01-08T14:19:12.247Z,99854.16
2023-01-08T14:21:38.991Z,99842.56
2023-01-08T14:24:14.895Z,99843.97
2023-01-08T14:26:41.547Z,99839.03
2023-01-08T14:29:16.815Z,99838.19
2023-01-08T14:31:52.560Z,99831.22
2023-01-08T14:34:21.338Z,99819.31
2023-01-08T14:36:53.348Z,99809.59
2023-01-08T14:39:40.243Z,99812.84
2023-01-08T14:42:39.522Z,99795.13
2023-01-08T14:45:36.021Z,99811.31
2023-01-08T14:48:17.824Z,99813.56
2023-01-08T14:50:52.389Z,99811.19
2023-01-08T14:53:33.311Z,99800.31
2023-01-08T14:56:01.209Z,99796.25
2023-01-08T14:58:34.261Z,99790.25
2023-01-08T15:01:05.919Z,99801.16
2023-01-08T15:03:42.648Z,99789.22
2023-01-08T15:06:14.105Z,99790.25
2023-01-08T15:08:44.915Z,99788.06
2023-01-08T15:11:49.228Z,99784.16
2023-01-08T15:14:22.974Z,99790.09
2023-01-08T15:16:50.074Z,99776.31
2023-01-08T15:19:23.001Z,99762.53
2023-01-08T15:21:51.138Z,99770.88
2023-01-08T15:24:29.901Z,99769.00
2023-01-08T15:26:57.358Z,99765.28
2023-01-08T15:29:33.369Z,99765.63
2023-01-08T15:32:15.201Z,99777.38
2023-01-08T15:34:46.134Z,99772.44
2023-01-08T15:37:14.666Z,99768.03
2023-01-08T15:39:42.135Z,99768.31
2023-01-08T15:42:38.151Z,99761.03
2023-01-08T15:45:09.299Z,99759.50
2023-01-08T15:47:35.819Z,99764.59
2023-01-08T15:50:02.360Z,99759.16
2023-01-08T15:52:31.436Z,99760.19
2023-01-08T15:54:59.544Z,99754.22
2023-01-08T15:57:26.438Z,99758.81
2023-01-08T15:59:53.051Z,99760.53
2023-01-08T16:02:22.624Z,99757.63
2023-01-08T16:04:53.347Z,99748.06
2023-01-08T16:07:22.326Z,99760.84
2023-01-08T16:09:49.027Z,99757.97
2023-01-08T16:12:15.608Z,99765.97
2023-01-08T16:14:42.131Z,99757.75
2023-01-08T16:17:09.984Z,99752.31
2023-01-08T16:19:36.531Z,99758.78
2023-01-08T16:22:04.659Z,99755.91
2023-01-08T16:24:31.679Z,99758.81
2023-01-08T16:26:58.289Z,99759.47
2023-01-08T16:29:32.616Z,99752.13
2023-01-08T16:31:59.275Z,99760.09
2023-01-08T16:34:28.197Z,99757.22
2023-01-08T16:36:57.234Z,99744.09
2023-01-08T16:39:23.802Z,99767.75
2023-01-08T16:41:52.607Z,99752.28
2023-01-08T16:44:25.106Z,99757.38
2023-01-08T16:46:52.802Z,99755.56
2023-01-08T16:49:21.817Z,99747.91
2023-01-08T16:51:48.644Z,99745.53
2023-01-08T16:54:19.072Z,99732.94
2023-01-08T16:56:45.932Z,99741.47
2023-01-08T16:59:22.840Z,99733.97
2023-01-08T17:01:49.718Z,99731.25
2023-01-08T17:04:18.562Z,99724.47
2023-01-08T17:06:46.803Z,99725.63
2023-01-08T17:09:13.650Z,99716.09
2023-01-08T17:11:40.195Z,99705.56
2023-01-08T17:14:06.781Z,99697.03
2023-01-08T17:16:33.456Z,99697.75
2023-01-08T17:19:05.188Z,99702.31
2023-01-08T17:21:34.105Z,99700.97
2023-01-08T17:24:00.666Z,99692.44
2023-01-08T17:26:29.723Z,99695.00
2023-01-08T17:28:56.328Z,99693.16
2023-01-08T17:31:25.621Z,99691.44
2023-01-08T17:33:52.743Z,99684.28
2023-01-08T17:36:22.137Z,99685.16
2023-01-08T17:38:51.576Z,99674.78
2023-01-08T17:41:37.777Z,99669.66
2023-01-08T17:44:08.865Z,99667.63
2023-01-08T17:46:43.965Z,99668.50
2023-01-08T17:49:13.290Z,99657.56
2023-01-08T17:51:41.533Z,99654.50
2023-01-08T17:54:16.018Z,99646.50
2023-01-08T17:56:43.255Z,99662.16
2023-01-08T17:59:14.843Z,99660.09
2023-01-08T18:01:41.971Z,99647.50
2023-01-08T18:04:10.764Z,99643.44
2023-01-08T18:06:37.526Z,99652.25
2023-01-08T18:09:06.960Z,99635.94
2023-01-08T18:11:33.478Z,99638.50
2023-01-08T18:14:02.145Z,99644.13
2023-01-08T18:16:32.583Z,99645.34
2023-01-08T18:19:00.126Z,99625.41
2023-01-08T18:21:30.508Z,99633.25
2023-01-08T18:23:57.188Z,99641.25
2023-01-08T18:26:23.999Z,99630.19
2023-01-08T18:28:52.123Z,99631.56
2023-01-08T18:31:19.077Z,99620.69
2023-01-08T18:33:45.840Z,99615.94
2023-01-08T18:36:12.960Z,99598.44
2023-01-08T18:38:41.700Z,99617.09
2023-01-08T18:41:09.965Z,99601.13
2023-01-08T18:43:37.187Z,99612.88
2023-01-08T18:46:07.695Z,99588.22
2023-01-08T18:48:37.680Z,99595.50
2023-01-08T18:51:05.787Z,99589.41
2023-01-08T18:53:33.504Z,99584.44
2023-01-08T18:56:02.995Z,99586.31
2023-01-08T18:58:29.930Z,99580.72
2023-01-08T19:01:05.316Z,99578.00
2023-01-08T19:03:32.265Z,99588.16
2023-01-08T19:06:01.286Z,99580.53
2023-01-08T19:08:27.897Z,99571.69
2023-01-08T19:10:54.527Z,99575.63
2023-01-08T19:13:21.148Z,99563.22
2023-01-08T19:15:50.227Z,99563.41
2023-01-08T19:18:17.083Z,99560.31
2023-01-08T19:20:46.165Z,99542.31
2023-01-08T19:23:13.836Z,99555.59
2023-01-08T19:25:42.813Z,99546.38
2023-01-08T19:28:14.244Z,99536.38
2023-01-08T19:30:40.996Z,99536.22
2023-01-08T19:33:07.955Z,99538.06
2023-01-08T19:35:41.331Z,99529.06
2023-01-08T19:38:08.043Z,99524.28
2023-01-08T19:40:34.564Z,99514.94
2023-01-08T19:43:19.947Z,99518.69
2023-01-08T19:45:48.977Z,99512.75
2023-01-08T19:48:15.715Z,99523.97
2023-01-08T19:50:42.650Z,99515.97
2023-01-08T19:53:09.217Z,99502.88
2023-01-08T19:55:37.282Z,99511.91
2023-01-08T19:58:06.663Z,99507.31
2023-01-08T20:00:37.463Z,99498.16
2023-01-08T20:03:04.839Z,99505.09
2023-01-08T20:05:33.639Z,99497.28
2023-01-08T20:08:00.534Z,99482.19
2023-01-08T20:10:27.264Z,99485.75
2023-01-08T20:12:53.842Z,99483.19
2023-01-08T20:15:21.965Z,99477.91
2023-01-08T20:17:48.507Z,99480.97
2023-01-08T20:20:17.615Z,99475.53
2023-01-08T20:22:44.335Z,99462.78
2023-01-08T20:25:13.143Z,99473.00
2023-01-08T20:27:39.691Z,99468.75
2023-01-08T20:30:08.601Z,99457.03
2023-01-08T20:32:39.907Z,99458.22
2023-01-08T20:35:08.794Z,99440.88
2023-01-08T20:37:36.008Z,99453.44
2023-01-08T20:40:02.586Z,99454.09
2023-01-08T20:42:34.081Z,99436.25
2023-01-08T20:45:01.193Z,99455.44
2023-01-08T20:47:27.752Z,99447.63
2023-01-08T20:49:56.681Z,99449.16
2023-01-08T20:52:23.226Z,99446.78
2023-01-08T20:54:53.053Z,99438.13
2023-01-08T20:57:19.647Z,99416.38
2023-01-08T20:59:48.420Z,99416.22
2023-01-08T21:02:15.006Z,99443.72
2023-01-08T21:04:43.752Z,99434.03
2023-01-08T21:07:10.259Z,99443.56
2023-01-08T21:09:38.519Z,99431.31
2023-01-08T21:12:06.962Z,99442.19
2023-01-08T21:14:33.753Z,99425.38
2023-01-08T21:17:00.265Z,99430.47
2023-01-08T21:19:28.893Z,99411.31
2023-01-08T21:21:55.439Z,99411.97
2023-01-08T21:24:21.959Z,99416.06
2023-01-08T21:26:48.537Z,99411.31
2023-01-08T21:29:19.907Z,99400.94
2023-01-08T21:31:51.319Z,99396.03
2023-01-08T21:34:17.944Z,99403.84
2023-01-08T21:36:44.524Z,99389.06
2023-01-08T21:39:13.672Z,99375.16
2023-01-08T21:41:58.854Z,99394.84
2023-01-08T21:44:44.565Z,99373.63
2023-01-08T21:47:16.960Z,99376.31
2023-01-08T21:49:45.048Z,99385.34
2023-01-08T21:52:30.316Z,99385.88
2023-01-08T21:54:59.474Z,99365.13
2023-01-08T21:57:29.641Z,99370.88
2023-01-08T21:59:56.542Z,99368.00
2023-01-08T22:02:27.959Z,99358.66
2023-01-08T22:04:56.066Z,99358.31
2023-01-08T22:07:26.361Z,99347.44
2023-01-08T22:09:53.180Z,99315.88
2023-01-08T22:12:20.465Z,99330.97
2023-01-08T22:14:47.009Z,99321.44
2023-01-08T22:17:13.576Z,99335.19
2023-01-08T22:19:40.730Z,99340.63
2023-01-08T22:22:10.433Z,99341.13
2023-01-08T22:24:40.878Z,99333.16
2023-01-08T22:27:08.999Z,99343.50
2023-01-08T22:29:36.629Z,99332.81
2023-01-08T22:32:04.039Z,99339.38
2023-01-08T22:34:32.102Z,99350.94
2023-01-08T22:36:58.642Z,99349.25
2023-01-08T22:39:25.451Z,99351.97
2023-01-08T22:41:52.077Z,99375.59
2023-01-08T22:44:18.667Z,99401.28
2023-01-08T22:46:45.234Z,99404.53
2023-01-08T22:49:13.317Z,99402.47
2023-01-08T22:51:44.741Z,99404.69
2023-01-08T22:54:13.331Z,99402.84
2023-01-08T22:56:39.958Z,99405.06
2023-01-08T22:59:06.607Z,99400.94
2023-01-08T23:01:35.581Z,99377.19
2023-01-08T23:04:02.590Z,99388.41
2023-01-08T23:06:31.093Z,99383.81
2023-01-08T23:09:00.951Z,99373.94
2023-01-08T23:11:30.257Z,99374.81
2023-01-08T23:13:56.832Z,99376.16
2023-01-08T23:16:25.461Z,99380.25
2023-01-08T23:18:56.055Z,99383.47
2023-01-08T23:21:26.053Z,99385.34
2023-01-08T23:23:52.871Z,99400.28
2023-01-08T23:26:26.070Z,99408.94
2023-01-08T23:28:53.555Z,99396.88
2023-01-08T23:31:30.500Z,99410.63
2023-01-08T23:33:57.944Z,99411.66
2023-01-08T23:36:25.160Z,99417.25
2023-01-08T23:38:54.541Z,99406.22
2023-01-08T23:41:25.595Z,99411.47
2023-01-08T23:43:52.169Z,99398.06
2023-01-08T23:46:20.952Z,99409.75
2023-01-08T23:48:47.593Z,99416.91
2023-01-08T23:51:17.504Z,99424.53
2023-01-08T23:53:44.091Z,99422.81
2023-01-08T23:56:10.712Z,99427.06
2023-01-08T23:58:37.767Z,99419.44
